Time;durP1;ratioP1;P1;durP2;ratioP2;P2;SDS_P1;SDS_P2;PMS_P1;PMS_P2;Temp;Humidity;BMP_temperature;BMP_pressure;BME280_temperature;BME280_humidity;BME280_pressure;Samples;Min_cycle;Max_cycle;Signal;HPM_P1;HPM_P2
2023/09/08 03:01:20;;;;;;;;;;;17.80;99.90;;;;;;5722147;23;20382;-78
2023/09/08 03:03:45;;;;;;;;;;;17.80;99.90;;;;;;4996807;28;19922;-80
2023/09/08 03:06:11;;;;;;;;;;;17.80;99.90;;;;;;4980855;28;19977;-79
2023/09/08 03:08:37;;;;;;;;;;;17.70;99.90;;;;;;4996833;28;20294;-80
2023/09/08 03:11:03;;;;;;;;;;;17.70;99.90;;;;;;4989992;28;19985;-80
2023/09/08 03:13:29;;;;;;;;;;;17.70;99.90;;;;;;4977188;28;19946;-80
2023/09/08 03:15:55;;;;;;;;;;;17.60;99.90;;;;;;4977214;28;19922;-78
2023/09/08 03:18:21;;;;;;;;;;;17.60;99.90;;;;;;4960985;28;20003;-79
2023/09/08 03:20:50;;;;;;;;;;;17.60;99.90;;;;;;4977408;28;19922;-78
2023/09/08 03:23:16;;;;;;;;;;;17.60;99.90;;;;;;4976909;28;19979;-80
2023/09/08 03:25:42;;;;;;;;;;;17.60;99.90;;;;;;4976832;28;19969;-79
2023/09/08 03:28:07;;;;;;;;;;;17.50;99.90;;;;;;4960755;28;19922;-78
2023/09/08 03:30:33;;;;;;;;;;;17.50;99.90;;;;;;4976792;28;19922;-80
2023/09/08 03:32:58;;;;;;;;;;;17.50;99.90;;;;;;4976848;28;19933;-80
2023/09/08 03:35:24;;;;;;;;;;;17.50;99.90;;;;;;4976751;28;19922;-80
2023/09/08 03:37:49;;;;;;;;;;;17.50;99.90;;;;;;4976999;28;19973;-79
2023/09/08 03:40:15;;;;;;;;;;;17.50;99.90;;;;;;4960417;28;20399;-78
2023/09/08 03:42:42;;;;;;;;;;;17.50;99.90;;;;;;4976952;28;19922;-77
2023/09/08 03:45:08;;;;;;;;;;;17.60;99.90;;;;;;4976393;28;19989;-80
2023/09/08 03:47:33;;;;;;;;;;;17.50;99.90;;;;;;4977947;28;19926;-79
2023/09/08 03:49:59;;;;;;;;;;;17.50;99.90;;;;;;4976714;28;19922;-78
2023/09/08 03:52:24;;;;;;;;;;;17.50;99.90;;;;;;4976657;28;20339;-79
2023/09/08 03:54:50;;;;;;;;;;;17.50;99.90;;;;;;4977407;28;19929;-80
2023/09/08 03:57:16;;;;;;;;;;;17.50;99.90;;;;;;4976565;28;19979;-79
2023/09/08 03:59:41;;;;;;;;;;;17.50;99.90;;;;;;4976278;28;19922;-80
2023/09/08 04:02:07;;;;;;;;;;;17.50;99.90;;;;;;4976076;28;19922;-78
2023/09/08 04:04:32;;;;;;;;;;;17.50;99.90;;;;;;4976146;28;19977;-80
2023/09/08 04:06:58;;;;;;;;;;;17.40;99.90;;;;;;4976229;28;19926;-79
2023/09/08 04:09:23;;;;;;;;;;;17.40;99.90;;;;;;4975842;28;19922;-79
2023/09/08 04:11:49;;;;;;;;;;;17.40;99.90;;;;;;4977273;28;20339;-78
2023/09/08 04:14:14;;;;;;;;;;;17.30;99.90;;;;;;4977167;28;20029;-78
2023/09/08 04:16:40;;;;;;;;;;;17.30;99.90;;;;;;4976031;28;20379;-79
2023/09/08 04:19:05;;;;;;;;;;;17.30;99.90;;;;;;4975918;28;19952;-78
2023/09/08 04:21:31;;;;;;;;;;;17.40;99.90;;;;;;4975891;28;19976;-79
2023/09/08 04:23:56;;;;;;;;;;;17.30;99.90;;;;;;4975839;28;19985;-80
2023/09/08 04:26:22;;;;;;;;;;;17.30;99.90;;;;;;4977103;28;20004;-79
2023/09/08 04:28:48;;;;;;;;;;;17.30;99.90;;;;;;4975755;28;19922;-79
2023/09/08 04:31:13;;;;;;;;;;;17.20;99.90;;;;;;4976036;28;19928;-80
2023/09/08 04:33:39;;;;;;;;;;;17.20;99.90;;;;;;4975701;28;20343;-79
2023/09/08 04:36:04;;;;;;;;;;;17.10;99.90;;;;;;4975675;28;19973;-79
2023/09/08 04:38:30;;;;;;;;;;;17.10;99.90;;;;;;4977199;28;19973;-79
2023/09/08 04:40:55;;;;;;;;;;;17.10;99.90;;;;;;4975884;28;20379;-79
2023/09/08 04:43:21;;;;;;;;;;;17.10;99.90;;;;;;4975786;28;20406;-78
2023/09/08 04:45:46;;;;;;;;;;;17.10;99.90;;;;;;4975386;28;20410;-79
2023/09/08 04:48:12;;;;;;;;;;;17.00;99.90;;;;;;4975446;28;19922;-78
2023/09/08 04:50:37;;;;;;;;;;;17.00;99.90;;;;;;4975328;28;19929;-80
2023/09/08 04:53:03;;;;;;;;;;;17.00;99.90;;;;;;4975278;28;19923;-79
2023/09/08 04:55:29;;;;;;;;;;;17.00;99.90;;;;;;4975669;28;19929;-77
2023/09/08 04:57:55;;;;;;;;;;;17.00;99.90;;;;;;4975081;28;19922;-79
2023/09/08 05:00:20;;;;;;;;;;;17.00;99.90;;;;;;4974097;28;19968;-77
2023/09/08 05:02:46;;;;;;;;;;;17.00;99.90;;;;;;4974826;28;19926;-78
2023/09/08 05:05:13;;;;;;;;;;;17.00;99.90;;;;;;4975829;28;20291;-76
2023/09/08 05:07:39;;;;;;;;;;;17.00;99.90;;;;;;4975566;28;19973;-76
2023/09/08 05:10:04;;;;;;;;;;;17.00;99.90;;;;;;4974902;28;20001;-77
2023/09/08 05:12:30;;;;;;;;;;;17.00;99.90;;;;;;4974945;28;19966;-78
2023/09/08 05:14:59;;;;;;;;;;;17.00;99.90;;;;;;4974906;28;19926;-77
2023/09/08 05:17:25;;;;;;;;;;;17.00;99.90;;;;;;4974775;28;19965;-77
2023/09/08 05:19:51;;;;;;;;;;;17.00;99.90;;;;;;4973737;28;19972;-77
2023/09/08 05:22:17;;;;;;;;;;;17.00;99.90;;;;;;4974659;28;19922;-77
2023/09/08 05:24:42;;;;;;;;;;;17.00;99.90;;;;;;4974815;28;19926;-77
2023/09/08 05:27:08;;;;;;;;;;;17.00;99.90;;;;;;4958509;28;19929;-76
2023/09/08 05:29:33;;;;;;;;;;;17.00;99.90;;;;;;4974633;28;19926;-77
2023/09/08 05:31:59;;;;;;;;;;;17.10;99.90;;;;;;4974373;28;19923;-78
2023/09/08 05:34:24;;;;;;;;;;;17.00;99.90;;;;;;4974557;28;19930;-78
2023/09/08 05:36:50;;;;;;;;;;;17.00;99.90;;;;;;4974378;28;19922;-81
2023/09/08 05:39:16;;;;;;;;;;;17.10;99.90;;;;;;4974610;28;20012;-77
2023/09/08 05:41:41;;;;;;;;;;;17.10;99.90;;;;;;4974295;28;20001;-77
2023/09/08 05:44:07;;;;;;;;;;;17.10;99.90;;;;;;4974480;28;20020;-77
2023/09/08 05:46:33;;;;;;;;;;;17.10;99.90;;;;;;4958716;28;20411;-77
2023/09/08 05:48:58;;;;;;;;;;;17.10;99.90;;;;;;4974311;28;19976;-78
2023/09/08 05:51:32;;;;;;;;;;;17.10;99.90;;;;;;5111897;27;19912;-77
2023/09/08 05:53:57;;;;;;;;;;;17.10;99.90;;;;;;5110215;28;20018;-77
2023/09/08 05:56:29;;;;;;;;;;;17.20;99.90;;;;;;5110208;28;19955;-77
2023/09/08 05:58:55;;;;;;;;;;;17.20;99.90;;;;;;5110129;28;19973;-78
2023/09/08 06:01:20;;;;;;;;;;;17.20;99.90;;;;;;5093000;28;19923;-79
2023/09/08 06:03:46;;;;;;;;;;;17.30;99.90;;;;;;5109987;28;20337;-78
2023/09/08 06:06:11;;;;;;;;;;;17.30;99.90;;;;;;5109993;28;19920;-78
2023/09/08 06:08:37;;;;;;;;;;;17.30;99.90;;;;;;5092855;28;19927;-77
2023/09/08 06:11:02;;;;;;;;;;;17.30;99.90;;;;;;5109680;28;19927;-78
2023/09/08 06:13:28;;;;;;;;;;;17.40;99.90;;;;;;5110568;28;19920;-80
2023/09/08 06:15:54;;;;;;;;;;;17.40;99.90;;;;;;5110163;28;19920;-82
2023/09/08 06:18:20;;;;;;;;;;;17.50;99.90;;;;;;5111503;28;19930;-83
2023/09/08 06:20:46;;;;;;;;;;;17.40;99.90;;;;;;5110322;28;19919;-80
2023/09/08 06:23:11;;;;;;;;;;;17.50;99.90;;;;;;5110458;28;19920;-84
2023/09/08 06:25:37;;;;;;;;;;;17.50;99.90;;;;;;5110045;28;20379;-82
2023/09/08 06:28:03;;;;;;;;;;;17.60;99.90;;;;;;5110217;28;19975;-84
2023/09/08 06:30:28;;;;;;;;;;;17.60;99.90;;;;;;5111229;28;20426;-85
2023/09/08 06:32:54;;;;;;;;;;;17.70;99.90;;;;;;5109708;28;19920;-81
2023/09/08 06:35:19;;;;;;;;;;;17.70;99.90;;;;;;5110891;28;19924;-82
2023/09/08 06:37:45;;;;;;;;;;;17.80;99.90;;;;;;5111138;28;20022;-83
2023/09/08 06:40:10;;;;;;;;;;;17.80;99.90;;;;;;5110788;28;20375;-80
2023/09/08 06:42:36;;;;;;;;;;;17.90;99.90;;;;;;5109729;28;19924;-79
2023/09/08 06:45:01;;;;;;;;;;;17.90;99.90;;;;;;5110754;28;19998;-75
2023/09/08 06:47:27;;;;;;;;;;;18.00;99.90;;;;;;5110994;28;19920;-83
2023/09/08 06:49:53;;;;;;;;;;;18.00;99.90;;;;;;5109303;28;19928;-81
2023/09/08 06:52:18;;;;;;;;;;;18.10;99.90;;;;;;5109655;28;19920;-79
2023/09/08 06:54:45;;;;;;;;;;;18.10;99.90;;;;;;5109517;28;20377;-80
2023/09/08 06:57:14;;;;;;;;;;;18.20;99.90;;;;;;5109465;28;19927;-80
2023/09/08 06:59:39;;;;;;;;;;;18.30;99.90;;;;;;5109211;28;19928;-76
2023/09/08 07:02:06;;;;;;;;;;;18.30;99.90;;;;;;5099923;28;19920;-78
2023/09/08 07:04:32;;;;;;;;;;;18.40;99.90;;;;;;5095767;28;20015;-79
2023/09/08 07:06:57;;;;;;;;;;;18.50;99.90;;;;;;5095438;28;19971;-77
2023/09/08 07:09:23;;;;;;;;;;;18.50;99.90;;;;;;5095519;28;19931;-78
2023/09/08 07:11:48;;;;;;;;;;;18.50;99.90;;;;;;5095312;28;19970;-80
2023/09/08 07:14:14;;;;;;;;;;;18.70;99.90;;;;;;5095284;28;20390;-80
2023/09/08 07:16:39;;;;;;;;;;;18.70;99.90;;;;;;5095309;28;20317;-77
2023/09/08 07:19:05;;;;;;;;;;;18.80;99.90;;;;;;5095503;28;19975;-79
2023/09/08 07:21:31;;;;;;;;;;;18.90;99.90;;;;;;5095776;28;19920;-79
2023/09/08 07:23:56;;;;;;;;;;;19.00;99.90;;;;;;5095263;28;19927;-81
2023/09/08 07:26:22;;;;;;;;;;;19.00;99.90;;;;;;5096567;28;19927;-81
2023/09/08 07:28:48;;;;;;;;;;;19.10;99.90;;;;;;5095471;28;19926;-79
2023/09/08 07:31:14;;;;;;;;;;;19.20;99.90;;;;;;5094928;28;20090;-80
2023/09/08 07:33:40;;;;;;;;;;;19.30;99.90;;;;;;5094924;28;19998;-78
2023/09/08 07:36:05;;;;;;;;;;;19.40;99.90;;;;;;5095496;28;19927;-78
2023/09/08 07:38:31;;;;;;;;;;;19.50;99.90;;;;;;5095207;28;19997;-79
2023/09/08 07:40:57;;;;;;;;;;;19.50;99.90;;;;;;5094875;28;20386;-79
2023/09/08 07:43:22;;;;;;;;;;;19.60;99.90;;;;;;5094596;28;20379;-80
2023/09/08 07:45:48;;;;;;;;;;;19.60;99.90;;;;;;5095156;28;19920;-78
2023/09/08 07:48:13;;;;;;;;;;;19.70;99.90;;;;;;5094518;28;19920;-80
2023/09/08 07:50:39;;;;;;;;;;;19.80;99.90;;;;;;5108088;28;19924;-78
2023/09/08 07:53:04;;;;;;;;;;;19.90;99.90;;;;;;5114774;28;20019;-77
2023/09/08 07:55:30;;;;;;;;;;;20.10;99.90;;;;;;5114886;28;20279;-80
2023/09/08 07:57:57;;;;;;;;;;;20.20;99.90;;;;;;5117208;28;19920;-79
2023/09/08 08:00:22;;;;;;;;;;;20.30;99.90;;;;;;5116798;28;19949;-80
2023/09/08 08:02:49;;;;;;;;;;;20.40;99.90;;;;;;5115054;28;19924;-78
2023/09/08 08:05:15;;;;;;;;;;;20.50;99.90;;;;;;5116350;28;19920;-80
2023/09/08 08:07:41;;;;;;;;;;;20.60;99.90;;;;;;5097617;28;20367;-75
2023/09/08 08:10:07;;;;;;;;;;;20.70;99.90;;;;;;5116000;27;19924;-77
2023/09/08 08:12:32;;;;;;;;;;;20.90;99.90;;;;;;5114100;28;19967;-77
2023/09/08 08:15:01;;;;;;;;;;;21.00;99.90;;;;;;5113920;28;19920;-76
2023/09/08 08:17:27;;;;;;;;;;;21.10;99.90;;;;;;5114484;28;19926;-78
2023/09/08 08:19:54;;;;;;;;;;;21.20;99.90;;;;;;5114695;28;19930;-77
2023/09/08 08:22:19;;;;;;;;;;;21.30;99.90;;;;;;5114401;28;19924;-78
2023/09/08 08:24:45;;;;;;;;;;;21.40;99.90;;;;;;5114229;28;19953;-77
2023/09/08 08:27:11;;;;;;;;;;;21.50;99.90;;;;;;5114205;28;20019;-79
2023/09/08 08:29:37;;;;;;;;;;;21.60;99.90;;;;;;5114082;28;19931;-77
2023/09/08 08:32:02;;;;;;;;;;;21.70;99.90;;;;;;5115589;28;19923;-76
2023/09/08 08:34:28;;;;;;;;;;;21.80;99.90;;;;;;5115296;28;19971;-76
2023/09/08 08:36:54;;;;;;;;;;;21.90;99.90;;;;;;5114167;28;20349;-79
2023/09/08 08:39:19;;;;;;;;;;;22.00;99.90;;;;;;5113987;28;20314;-79
2023/09/08 08:41:45;;;;;;;;;;;22.10;99.90;;;;;;5114207;28;19980;-79
2023/09/08 08:44:10;;;;;;;;;;;22.20;99.90;;;;;;5113830;28;19927;-79
2023/09/08 08:46:37;;;;;;;;;;;22.30;99.90;;;;;;5113917;28;19927;-79
2023/09/08 08:49:03;;;;;;;;;;;22.30;99.90;;;;;;5115377;28;20029;-77
2023/09/08 08:51:30;;;;;;;;;;;22.40;99.90;;;;;;5115191;28;19999;-79
2023/09/08 08:53:56;;;;;;;;;;;22.50;99.90;;;;;;5114091;28;20002;-79
2023/09/08 08:56:22;;;;;;;;;;;22.60;99.90;;;;;;5115015;28;20375;-77
2023/09/08 08:58:48;;;;;;;;;;;22.70;99.90;;;;;;5113726;28;19925;-77
2023/09/08 09:01:15;;;;;;;;;;;22.80;99.90;;;;;;5113942;28;19969;-77
2023/09/08 09:03:41;;;;;;;;;;;22.90;99.90;;;;;;5113676;28;20439;-76
2023/09/08 09:06:06;;;;;;;;;;;23.10;99.90;;;;;;5113608;28;19920;-79
2023/09/08 09:08:33;;;;;;;;;;;23.20;99.90;;;;;;5113584;28;20081;-78
2023/09/08 09:10:58;;;;;;;;;;;23.30;99.90;;;;;;5114959;28;19930;-78
2023/09/08 09:13:24;;;;;;;;;;;23.40;99.90;;;;;;5114764;28;20006;-76
2023/09/08 09:15:50;;;;;;;;;;;23.50;99.90;;;;;;5113469;28;19920;-77
2023/09/08 09:18:15;;;;;;;;;;;23.60;99.90;;;;;;5113306;28;19919;-78
2023/09/08 09:20:52;;;;;;;;;;;23.70;99.90;;;;;;5113271;28;20365;-78
2023/09/08 09:23:26;;;;;;;;;;;23.90;99.90;;;;;;5113296;28;19957;-78
2023/09/08 09:25:52;;;;;;;;;;;24.00;99.90;;;;;;5114775;28;19927;-77
2023/09/08 09:28:17;;;;;;;;;;;24.10;99.90;;;;;;5113459;28;20287;-76
2023/09/08 09:30:54;;;;;;;;;;;24.30;99.90;;;;;;5112919;28;19923;-75
2023/09/08 09:33:20;;;;;;;;;;;24.40;99.90;;;;;;5113175;28;19932;-77
2023/09/08 09:35:47;;;;;;;;;;;24.60;99.90;;;;;;5114330;28;20347;-78
2023/09/08 09:38:13;;;;;;;;;;;24.70;99.90;;;;;;5114004;28;19924;-77
2023/09/08 09:40:39;;;;;;;;;;;24.80;99.90;;;;;;5114313;28;20302;-77
2023/09/08 09:43:05;;;;;;;;;;;24.90;99.90;;;;;;5113440;28;19946;-77
2023/09/08 09:45:31;;;;;;;;;;;24.90;99.90;;;;;;5113336;28;19928;-79
2023/09/08 09:47:56;;;;;;;;;;;25.10;99.90;;;;;;5113375;28;19924;-78
2023/09/08 09:50:33;;;;;;;;;;;25.20;99.90;;;;;;5112772;28;19924;-79
2023/09/08 09:53:00;;;;;;;;;;;25.20;99.90;;;;;;5114395;28;20379;-76
2023/09/08 09:55:26;;;;;;;;;;;25.30;99.90;;;;;;5114184;28;19920;-77
2023/09/08 09:57:55;;;;;;;;;;;25.40;99.90;;;;;;5095886;28;20006;-79
2023/09/08 10:00:21;;;;;;;;;;;25.50;99.90;;;;;;5113984;28;20287;-78
2023/09/08 10:02:46;;;;;;;;;;;25.60;99.90;;;;;;5113428;28;19919;-76
2023/09/08 10:05:12;;;;;;;;;;;25.60;99.90;;;;;;5114771;28;20400;-79
2023/09/08 10:07:39;;;;;;;;;;;25.80;99.90;;;;;;5113027;28;19926;-77
2023/09/08 10:10:05;;;;;;;;;;;25.90;99.90;;;;;;5112746;28;19923;-77
2023/09/08 10:12:32;;;;;;;;;;;25.90;99.90;;;;;;5112898;28;20385;-78
2023/09/08 10:14:59;;;;;;;;;;;26.10;99.90;;;;;;5112567;28;19959;-77
2023/09/08 10:17:28;;;;;;;;;;;26.20;99.90;;;;;;5112737;28;19969;-78
2023/09/08 10:19:55;;;;;;;;;;;26.30;99.90;;;;;;5112533;28;19930;-77
2023/09/08 10:22:23;;;;;;;;;;;26.40;99.90;;;;;;5112554;28;19919;-79
2023/09/08 10:24:49;;;;;;;;;;;26.40;99.90;;;;;;5095585;28;19927;-80
2023/09/08 10:27:18;;;;;;;;;;;26.50;99.90;;;;;;5112704;28;20283;-78
2023/09/08 10:29:44;;;;;;;;;;;26.60;99.90;;;;;;5112324;28;19924;-77
2023/09/08 10:32:10;;;;;;;;;;;26.70;99.90;;;;;;5112711;28;19927;-76
2023/09/08 10:34:36;;;;;;;;;;;26.80;99.90;;;;;;5112460;28;19920;-78
2023/09/08 10:37:05;;;;;;;;;;;26.90;99.90;;;;;;5114277;28;19920;-78
2023/09/08 10:39:39;;;;;;;;;;;27.00;99.90;;;;;;5116313;28;20228;-77
2023/09/08 10:42:31;;;;;;;;;;;27.00;99.90;;;;;;5116185;28;20010;-77
2023/09/08 10:44:58;;;;;;;;;;;27.10;99.90;;;;;;5094159;28;19926;-78
2023/09/08 10:47:42;;;;;;;;;;;27.20;99.90;;;;;;5116085;28;19924;-77
2023/09/08 10:50:15;;;;;;;;;;;27.30;99.90;;;;;;5117112;28;20286;-77
2023/09/08 10:52:41;;;;;;;;;;;27.40;99.90;;;;;;5116327;28;19964;-77
2023/09/08 10:55:06;;;;;;;;;;;27.50;99.90;;;;;;5115853;28;19919;-78
2023/09/08 10:57:33;;;;;;;;;;;27.50;99.90;;;;;;5116237;28;19920;-78
2023/09/08 11:00:01;;;;;;;;;;;27.60;99.90;;;;;;5115944;28;19919;-77
2023/09/08 11:02:42;;;;;;;;;;;27.70;99.90;;;;;;5115810;28;19927;-79
2023/09/08 11:05:10;;;;;;;;;;;27.70;99.90;;;;;;5115735;28;19927;-77
2023/09/08 11:07:36;;;;;;;;;;;27.80;99.90;;;;;;5117031;28;19920;-78
2023/09/08 11:10:01;;;;;;;;;;;27.90;99.90;;;;;;5115623;28;19924;-77
2023/09/08 11:12:27;;;;;;;;;;;27.90;99.90;;;;;;5116903;28;19926;-79
2023/09/08 11:14:53;;;;;;;;;;;27.90;99.90;;;;;;5117027;28;20264;-78
2023/09/08 11:17:19;;;;;;;;;;;27.90;99.90;;;;;;5115579;28;19973;-78
2023/09/08 11:19:48;;;;;;;;;;;28.00;99.90;;;;;;5115569;28;19920;-78
2023/09/08 11:22:14;;;;;;;;;;;28.00;99.90;;;;;;5116777;28;19927;-78
2023/09/08 11:24:43;;;;;;;;;;;28.10;99.90;;;;;;5115471;28;19970;-78
2023/09/08 11:27:09;;;;;;;;;;;28.10;99.90;;;;;;5115421;28;19954;-76
2023/09/08 11:29:35;;;;;;;;;;;28.20;99.90;;;;;;5115356;28;19967;-77
2023/09/08 11:32:02;;;;;;;;;;;28.30;99.90;;;;;;5115585;28;19955;-78
2023/09/08 11:34:28;;;;;;;;;;;28.40;99.90;;;;;;5115325;28;19919;-79
2023/09/08 11:36:54;;;;;;;;;;;28.40;99.90;;;;;;5115222;28;19969;-78
2023/09/08 11:39:22;;;;;;;;;;;28.60;99.90;;;;;;5115115;28;19928;-78
2023/09/08 11:41:48;;;;;;;;;;;28.60;99.90;;;;;;5115072;28;20016;-77
2023/09/08 11:44:20;;;;;;;;;;;28.70;99.90;;;;;;5114999;28;19999;-78
2023/09/08 11:46:48;;;;;;;;;;;28.70;99.90;;;;;;5114991;28;19949;-78
2023/09/08 11:49:13;;;;;;;;;;;28.70;99.90;;;;;;5114952;28;19924;-79
2023/09/08 11:51:39;;;;;;;;;;;28.70;99.90;;;;;;5114682;28;19930;-77
2023/09/08 11:54:04;;;;;;;;;;;28.70;99.90;;;;;;5114651;28;19920;-79
2023/09/08 11:56:31;;;;;;;;;;;28.70;99.90;;;;;;5114776;28;20010;-79
2023/09/08 11:58:57;;;;;;;;;;;28.80;99.90;;;;;;5114713;28;19920;-78
2023/09/08 12:01:22;;;;;;;;;;;28.80;99.90;;;;;;5114698;28;20014;-79
2023/09/08 12:03:52;;;;;;;;;;;28.80;99.90;;;;;;5114722;28;19927;-78
2023/09/08 12:06:18;;;;;;;;;;;28.80;99.90;;;;;;5116245;28;19958;-78
2023/09/08 12:08:44;;;;;;;;;;;28.90;99.90;;;;;;5114850;28;19919;-78
2023/09/08 12:11:10;;;;;;;;;;;29.00;99.90;;;;;;5114609;28;19924;-79
2023/09/08 12:13:36;;;;;;;;;;;29.00;99.90;;;;;;5114631;28;19919;-78
2023/09/08 12:16:01;;;;;;;;;;;29.10;99.90;;;;;;5116414;28;19920;-78
2023/09/08 12:18:37;;;;;;;;;;;29.10;99.90;;;;;;5114778;28;20010;-76
2023/09/08 12:21:04;;;;;;;;;;;29.10;99.90;;;;;;5114614;28;19923;-78
2023/09/08 12:23:30;;;;;;;;;;;29.10;99.90;;;;;;5097682;28;20286;-78
2023/09/08 12:25:57;;;;;;;;;;;29.20;99.90;;;;;;5097255;28;19927;-76
2023/09/08 12:28:22;;;;;;;;;;;29.10;99.90;;;;;;5114187;28;19919;-77
2023/09/08 12:30:52;;;;;;;;;;;29.10;99.90;;;;;;5114052;28;19985;-78
2023/09/08 12:33:19;;;;;;;;;;;29.10;99.90;;;;;;5114344;28;19924;-76
2023/09/08 12:35:46;;;;;;;;;;;29.10;99.90;;;;;;5114028;28;19920;-78
2023/09/08 12:38:13;;;;;;;;;;;29.10;99.90;;;;;;5115534;28;19992;-78
2023/09/08 12:40:38;;;;;;;;;;;29.10;99.90;;;;;;5115471;27;19920;-79
2023/09/08 12:43:04;;;;;;;;;;;29.20;99.90;;;;;;5115016;28;19920;-78
2023/09/08 12:45:30;;;;;;;;;;;29.30;99.90;;;;;;5114049;28;19927;-78
2023/09/08 12:47:58;;;;;;;;;;;29.30;99.90;;;;;;5115347;28;19920;-78
2023/09/08 12:50:24;;;;;;;;;;;29.30;99.90;;;;;;5113726;28;19973;-77
2023/09/08 12:52:50;;;;;;;;;;;29.40;99.90;;;;;;5113799;28;19927;-78
2023/09/08 12:55:15;;;;;;;;;;;29.40;99.90;;;;;;5114862;28;19919;-77
2023/09/08 12:57:41;;;;;;;;;;;29.50;99.90;;;;;;5113884;28;20316;-77
2023/09/08 13:00:07;;;;;;;;;;;29.40;99.90;;;;;;5114582;28;20006;-79
2023/09/08 13:02:33;;;;;;;;;;;29.50;99.90;;;;;;5113821;28;19920;-78
2023/09/08 13:04:58;;;;;;;;;;;29.40;99.90;;;;;;5096483;28;19926;-78
2023/09/08 13:07:24;;;;;;;;;;;29.50;99.90;;;;;;5114685;28;20002;-79
2023/09/08 13:09:53;;;;;;;;;;;29.50;99.90;;;;;;5113569;28;19946;-79
2023/09/08 13:12:18;;;;;;;;;;;29.60;99.90;;;;;;5114791;28;19966;-78
2023/09/08 13:14:44;;;;;;;;;;;29.60;99.90;;;;;;5113364;28;19966;-77
2023/09/08 13:17:10;;;;;;;;;;;29.70;99.90;;;;;;5113248;28;19926;-78
2023/09/08 13:19:37;;;;;;;;;;;29.70;99.90;;;;;;5113280;28;20345;-78
2023/09/08 13:22:03;;;;;;;;;;;29.60;99.90;;;;;;5113897;28;19958;-77
2023/09/08 13:24:29;;;;;;;;;;;29.60;99.90;;;;;;5113151;28;19920;-78
2023/09/08 13:26:54;;;;;;;;;;;29.50;99.90;;;;;;5113447;28;19945;-78
2023/09/08 13:29:20;;;;;;;;;;;29.60;99.90;;;;;;5113289;28;19971;-78
2023/09/08 13:31:46;;;;;;;;;;;29.60;99.90;;;;;;5114443;28;19926;-78
2023/09/08 13:34:11;;;;;;;;;;;29.60;99.90;;;;;;5113031;28;19919;-78
2023/09/08 13:36:37;;;;;;;;;;;29.70;99.90;;;;;;5112876;28;19920;-78
2023/09/08 13:39:02;;;;;;;;;;;29.70;99.90;;;;;;5114404;28;19927;-79
2023/09/08 13:41:46;;;;;;;;;;;29.70;99.90;;;;;;5113358;28;19927;-77
2023/09/08 13:44:12;;;;;;;;;;;29.70;99.90;;;;;;5113880;28;19949;-77
2023/09/08 13:46:37;;;;;;;;;;;29.70;99.90;;;;;;5112799;28;19920;-77
2023/09/08 13:49:03;;;;;;;;;;;29.80;99.90;;;;;;5112767;28;19923;-79
2023/09/08 13:51:29;;;;;;;;;;;29.80;99.90;;;;;;5112669;28;19930;-78
2023/09/08 13:53:54;;;;;;;;;;;29.90;99.90;;;;;;5112776;28;19962;-78
2023/09/08 13:56:20;;;;;;;;;;;29.90;99.90;;;;;;5112855;28;19946;-78
2023/09/08 13:58:45;;;;;;;;;;;30.00;99.90;;;;;;5095600;28;19927;-78
2023/09/08 14:01:11;;;;;;;;;;;30.00;99.90;;;;;;5112666;28;19920;-78
2023/09/08 14:03:37;;;;;;;;;;;30.10;99.90;;;;;;5114181;28;19964;-77
2023/09/08 14:06:02;;;;;;;;;;;30.10;99.90;;;;;;5113050;28;19919;-80
2023/09/08 14:08:28;;;;;;;;;;;30.00;99.90;;;;;;5113535;28;20351;-81
2023/09/08 14:10:53;;;;;;;;;;;30.10;99.90;;;;;;5113303;28;19928;-80
2023/09/08 14:13:19;;;;;;;;;;;30.10;99.90;;;;;;5118071;28;19937;-80
2023/09/08 14:15:45;;;;;;;;;;;30.10;99.90;;;;;;5118361;28;19920;-80
2023/09/08 14:18:10;;;;;;;;;;;30.20;99.90;;;;;;5118382;28;19971;-80
2023/09/08 14:20:36;;;;;;;;;;;30.10;99.90;;;;;;5118501;28;20002;-80
2023/09/08 14:23:02;;;;;;;;;;;30.10;99.90;;;;;;5119059;28;19926;-81
2023/09/08 14:25:27;;;;;;;;;;;30.10;99.90;;;;;;5117649;28;20388;-81
2023/09/08 14:27:53;;;;;;;;;;;30.10;99.90;;;;;;5117212;28;19923;-79
2023/09/08 14:30:18;;;;;;;;;;;30.10;99.90;;;;;;5100122;28;19923;-80
2023/09/08 14:32:44;;;;;;;;;;;30.10;99.90;;;;;;5116805;28;19931;-79
2023/09/08 14:35:09;;;;;;;;;;;30.00;99.90;;;;;;5117274;28;19919;-80
2023/09/08 14:37:35;;;;;;;;;;;29.90;99.90;;;;;;5117058;28;19945;-80
2023/09/08 14:40:01;;;;;;;;;;;29.90;99.90;;;;;;5118407;28;19945;-81
2023/09/08 14:42:26;;;;;;;;;;;29.90;99.90;;;;;;5116829;28;19924;-81
2023/09/08 14:44:52;;;;;;;;;;;29.90;99.90;;;;;;5117203;28;19927;-78
2023/09/08 14:47:18;;;;;;;;;;;29.90;99.90;;;;;;5117917;28;19920;-79
2023/09/08 14:49:43;;;;;;;;;;;29.90;99.90;;;;;;5117665;28;20291;-79
2023/09/08 14:52:09;;;;;;;;;;;29.90;99.90;;;;;;5118542;28;19946;-81
2023/09/08 14:54:35;;;;;;;;;;;30.00;99.90;;;;;;5118162;28;19924;-81
2023/09/08 14:57:00;;;;;;;;;;;30.00;99.90;;;;;;5118108;28;20014;-79
2023/09/08 14:59:26;;;;;;;;;;;30.10;99.90;;;;;;5099458;28;19971;-80
2023/09/08 15:01:53;;;;;;;;;;;30.10;99.90;;;;;;5099629;28;19920;-79
2023/09/08 15:04:19;;;;;;;;;;;30.10;99.90;;;;;;5116750;28;19965;-77
2023/09/08 15:06:44;;;;;;;;;;;30.20;99.90;;;;;;5116410;28;19924;-77
2023/09/08 15:09:10;;;;;;;;;;;30.20;99.90;;;;;;5116354;28;19970;-80
2023/09/08 15:11:37;;;;;;;;;;;30.20;99.90;;;;;;5099303;28;19924;-84
2023/09/08 15:14:03;;;;;;;;;;;30.20;99.90;;;;;;5117381;28;19924;-82
2023/09/08 15:16:29;;;;;;;;;;;30.20;99.90;;;;;;5116231;28;20272;-81
2023/09/08 15:18:54;;;;;;;;;;;30.20;99.90;;;;;;5116115;28;19927;-81
2023/09/08 15:21:25;;;;;;;;;;;30.20;99.90;;;;;;5117571;28;19931;-83
2023/09/08 15:23:51;;;;;;;;;;;30.10;99.90;;;;;;5115417;28;19963;-83
2023/09/08 15:26:17;;;;;;;;;;;30.10;99.90;;;;;;5117409;28;19969;-80
2023/09/08 15:28:43;;;;;;;;;;;30.10;99.90;;;;;;5115593;28;19927;-82
2023/09/08 15:31:08;;;;;;;;;;;30.00;99.90;;;;;;5115562;28;19931;-80
2023/09/08 15:33:34;;;;;;;;;;;30.00;99.90;;;;;;5116712;28;20010;-80
2023/09/08 15:35:59;;;;;;;;;;;29.90;99.90;;;;;;5115514;28;19919;-84
2023/09/08 15:38:25;;;;;;;;;;;29.80;99.90;;;;;;5115310;28;19920;-81
2023/09/08 15:41:06;;;;;;;;;;;29.80;99.90;;;;;;5116716;28;19919;-82
2023/09/08 15:43:32;;;;;;;;;;;29.80;99.90;;;;;;5115092;28;19963;-80
2023/09/08 15:45:58;;;;;;;;;;;29.80;99.90;;;;;;5115072;28;20290;-83
2023/09/08 15:48:23;;;;;;;;;;;29.80;99.90;;;;;;5114995;28;19923;-82
2023/09/08 15:50:49;;;;;;;;;;;29.80;99.90;;;;;;5116157;28;20275;-81
2023/09/08 15:53:14;;;;;;;;;;;29.70;99.90;;;;;;5116556;28;20301;-81
2023/09/08 15:55:40;;;;;;;;;;;29.70;99.90;;;;;;5116386;28;19927;-81
2023/09/08 15:58:06;;;;;;;;;;;29.70;99.90;;;;;;5114725;28;19920;-81
2023/09/08 16:00:32;;;;;;;;;;;29.70;99.90;;;;;;5114835;28;19963;-81
2023/09/08 16:02:58;;;;;;;;;;;29.60;99.90;;;;;;5116251;28;20015;-81
2023/09/08 16:05:24;;;;;;;;;;;29.70;99.90;;;;;;5114687;28;19977;-82
2023/09/08 16:07:49;;;;;;;;;;;29.60;99.90;;;;;;5114610;28;20358;-80
2023/09/08 16:10:15;;;;;;;;;;;29.50;99.90;;;;;;5114671;28;19924;-82
2023/09/08 16:12:40;;;;;;;;;;;29.50;99.90;;;;;;5116044;28;20333;-81
2023/09/08 16:15:06;;;;;;;;;;;29.50;99.90;;;;;;5114793;28;19919;-81
2023/09/08 16:17:32;;;;;;;;;;;29.40;99.90;;;;;;5116187;27;20392;-80
2023/09/08 16:19:58;;;;;;;;;;;29.40;99.90;;;;;;5114760;28;19920;-80
2023/09/08 16:22:23;;;;;;;;;;;29.30;99.90;;;;;;5114451;28;19959;-80
2023/09/08 16:24:49;;;;;;;;;;;29.20;99.90;;;;;;5116058;28;19927;-83
2023/09/08 16:27:15;;;;;;;;;;;29.20;99.90;;;;;;5114645;28;19927;-80
2023/09/08 16:29:41;;;;;;;;;;;29.10;99.90;;;;;;5114555;28;20286;-80
2023/09/08 16:32:10;;;;;;;;;;;29.00;99.90;;;;;;5115378;28;20379;-82
2023/09/08 16:34:35;;;;;;;;;;;28.90;99.90;;;;;;5114899;28;19968;-82
2023/09/08 16:37:02;;;;;;;;;;;28.80;99.90;;;;;;5114343;28;20014;-83
2023/09/08 16:39:27;;;;;;;;;;;28.70;99.90;;;;;;5114688;28;20006;-81
2023/09/08 16:41:53;;;;;;;;;;;28.50;99.90;;;;;;5115569;28;20429;-82
2023/09/08 16:44:18;;;;;;;;;;;28.40;99.90;;;;;;5115632;28;19920;-82
2023/09/08 16:46:44;;;;;;;;;;;28.30;99.90;;;;;;5114422;28;20279;-81
2023/09/08 16:49:09;;;;;;;;;;;28.30;99.90;;;;;;5113810;28;20268;-81
2023/09/08 16:51:35;;;;;;;;;;;28.20;99.90;;;;;;5113666;28;19997;-83
2023/09/08 16:54:00;;;;;;;;;;;28.20;99.90;;;;;;5113862;28;19920;-79
2023/09/08 16:56:26;;;;;;;;;;;28.10;99.90;;;;;;5096810;28;19950;-81
2023/09/08 16:58:51;;;;;;;;;;;28.00;99.90;;;;;;5113680;28;20332;-80
2023/09/08 17:01:17;;;;;;;;;;;27.90;99.90;;;;;;5096368;28;19920;-80
2023/09/08 17:03:42;;;;;;;;;;;27.80;99.90;;;;;;5111533;28;20007;-83
2023/09/08 17:06:08;;;;;;;;;;;27.70;99.90;;;;;;5111798;28;19920;-83
2023/09/08 17:08:33;;;;;;;;;;;27.60;99.90;;;;;;5112396;28;19923;-82
2023/09/08 17:11:03;;;;;;;;;;;27.50;99.90;;;;;;5112146;28;19923;-82